createdAt,value
2019-01-23T00:00:51.041Z,8.10
2019-01-23T00:03:54.645Z,9.17
2019-01-23T00:06:58.092Z,7.90
2019-01-23T00:10:01.630Z,8.60
2019-01-23T00:13:05.175Z,8.73
2019-01-23T00:16:09.818Z,8.60
2019-01-23T00:19:13.368Z,7.62
2019-01-23T00:22:16.878Z,8.30
2019-01-23T00:25:20.382Z,8.40
2019-01-23T00:28:23.884Z,8.03
2019-01-23T00:31:27.490Z,8.18
2019-01-23T00:34:31.066Z,8.07
2019-01-23T00:37:34.589Z,7.80
2019-01-23T00:40:40.156Z,7.57
2019-01-23T00:43:45.668Z,7.90
2019-01-23T00:46:49.208Z,7.57
2019-01-23T00:49:53.797Z,7.77
2019-01-23T00:52:57.409Z,8.10
2019-01-23T00:56:00.913Z,7.80
2019-01-23T00:59:04.408Z,8.17
2019-01-23T01:02:07.939Z,7.55
2019-01-23T01:05:11.434Z,8.17
2019-01-23T01:08:14.900Z,8.27
2019-01-23T01:11:18.418Z,7.77
2019-01-23T01:14:21.911Z,7.53
2019-01-23T01:17:25.434Z,7.50
2019-01-23T01:20:28.941Z,7.57
2019-01-23T01:23:32.425Z,7.80
2019-01-23T01:26:35.964Z,7.55
2019-01-23T01:29:39.423Z,8.63
2019-01-23T01:32:42.908Z,8.53
2019-01-23T01:35:46.411Z,7.30
2019-01-23T01:38:49.914Z,7.83
2019-01-23T01:41:53.414Z,7.97
2019-01-23T01:44:57.942Z,7.90
2019-01-23T01:48:01.458Z,8.30
2019-01-23T01:51:04.954Z,7.60
2019-01-23T01:54:08.446Z,8.30
2019-01-23T01:57:11.941Z,8.35
2019-01-23T02:00:20.285Z,8.33
2019-01-23T02:03:24.922Z,8.00
2019-01-23T02:06:28.401Z,8.33
2019-01-23T02:09:35.550Z,9.07
2019-01-23T02:12:38.279Z,8.47
2019-01-23T02:15:41.770Z,8.47
2019-01-23T02:18:45.256Z,8.60
2019-01-23T02:21:48.758Z,8.75
2019-01-23T02:24:52.280Z,8.95
2019-01-23T02:27:55.780Z,8.35
2019-01-23T02:30:59.271Z,9.00
2019-01-23T02:34:02.790Z,9.40
2019-01-23T02:37:06.257Z,8.83
2019-01-23T02:40:13.010Z,8.73
2019-01-23T02:43:17.582Z,9.43
2019-01-23T02:46:21.075Z,9.80
2019-01-23T02:49:24.588Z,9.10
2019-01-23T02:52:28.077Z,8.67
2019-01-23T02:55:32.692Z,9.87
2019-01-23T02:58:36.307Z,10.00
2019-01-23T03:01:39.827Z,9.43
2019-01-23T03:04:43.322Z,9.67
2019-01-23T03:07:46.820Z,10.37
2019-01-23T03:10:50.316Z,9.47
2019-01-23T03:13:55.937Z,9.53
2019-01-23T03:16:59.574Z,9.87
2019-01-23T03:20:03.160Z,9.95
2019-01-23T03:23:06.802Z,10.63
2019-01-23T03:26:10.254Z,9.93
2019-01-23T03:29:14.807Z,10.00
2019-01-23T03:32:18.347Z,9.87
2019-01-23T03:35:21.796Z,10.43
2019-01-23T03:38:25.323Z,11.53
2019-01-23T03:41:28.801Z,10.97
2019-01-23T03:44:34.347Z,10.37
2019-01-23T03:47:37.852Z,10.70
2019-01-23T03:50:41.341Z,11.00
2019-01-23T03:53:44.888Z,11.27
2019-01-23T03:56:48.374Z,10.47
2019-01-23T03:59:52.871Z,10.87
2019-01-23T04:02:56.424Z,11.20
2019-01-23T04:06:00.076Z,11.63
2019-01-23T04:09:05.198Z,11.47
2019-01-23T04:12:08.762Z,11.30
2019-01-23T04:15:13.171Z,10.70
2019-01-23T04:18:16.757Z,11.47
2019-01-23T04:21:20.245Z,12.13
2019-01-23T04:24:24.804Z,11.57
2019-01-23T04:27:28.263Z,11.67
2019-01-23T04:30:32.788Z,11.80
2019-01-23T04:33:36.304Z,11.87
2019-01-23T04:36:39.798Z,12.13
2019-01-23T04:39:44.314Z,11.23
2019-01-23T04:42:47.953Z,12.00
2019-01-23T04:45:51.523Z,11.03
2019-01-23T04:48:55.024Z,12.20
2019-01-23T04:52:06.144Z,12.37
2019-01-23T04:55:10.793Z,12.20
2019-01-23T04:58:15.380Z,11.77
2019-01-23T05:01:18.875Z,11.93
2019-01-23T05:04:22.416Z,12.83
2019-01-23T05:07:26.163Z,12.57
2019-01-23T05:10:29.680Z,13.37
2019-01-23T05:13:33.309Z,12.77
2019-01-23T05:16:36.764Z,12.40
2019-01-23T05:19:40.283Z,12.27
2019-01-23T05:22:44.793Z,12.73
2019-01-23T05:25:48.326Z,12.47
2019-01-23T05:28:51.848Z,12.57
2019-01-23T05:31:57.356Z,12.90
2019-01-23T05:35:01.874Z,12.30
2019-01-23T05:38:05.396Z,12.37
2019-01-23T05:41:08.868Z,12.70
2019-01-23T05:44:12.395Z,12.60
2019-01-23T05:47:15.889Z,13.03
2019-01-23T05:50:19.486Z,12.70
2019-01-23T05:53:23.078Z,13.80
2019-01-23T05:56:27.633Z,13.23
2019-01-23T05:59:31.174Z,12.47
2019-01-23T06:02:35.649Z,12.70
2019-01-23T06:05:40.160Z,13.00
2019-01-23T06:08:43.682Z,12.60
2019-01-23T06:11:47.154Z,13.30
2019-01-23T06:14:51.699Z,13.07
2019-01-23T06:17:56.210Z,13.50
2019-01-23T06:20:59.713Z,12.97
2019-01-23T06:24:03.243Z,13.63
2019-01-23T06:27:06.706Z,13.33
2019-01-23T06:30:15.963Z,13.22
2019-01-23T06:33:20.467Z,13.97
2019-01-23T06:36:25.061Z,13.33
2019-01-23T06:39:28.745Z,13.47
2019-01-23T06:42:32.208Z,13.80
2019-01-23T06:45:35.696Z,13.10
2019-01-23T06:48:39.211Z,12.67
2019-01-23T06:51:42.716Z,13.97
2019-01-23T06:54:47.266Z,13.67
2019-01-23T06:57:50.725Z,13.67
2019-01-23T07:00:54.231Z,13.13
2019-01-23T07:03:57.758Z,13.47
2019-01-23T07:07:01.255Z,13.57
2019-01-23T07:10:07.087Z,13.60
2019-01-23T07:13:10.704Z,13.67
2019-01-23T07:16:14.199Z,13.37
2019-01-23T07:19:17.700Z,13.53
2019-01-23T07:22:21.200Z,13.87
2019-01-23T07:25:25.827Z,13.90
2019-01-23T07:28:29.435Z,13.30
2019-01-23T07:31:32.941Z,14.20
2019-01-23T07:34:36.450Z,12.97
2019-01-23T07:37:40.941Z,14.07
2019-01-23T07:40:45.500Z,13.37
2019-01-23T07:43:49.072Z,13.83
2019-01-23T07:46:53.717Z,13.20
2019-01-23T07:49:57.276Z,13.67
2019-01-23T07:53:00.911Z,14.43
2019-01-23T07:56:04.423Z,14.77
2019-01-23T07:59:07.897Z,14.63
2019-01-23T08:02:11.442Z,13.93
2019-01-23T08:05:19.535Z,14.30
2019-01-23T08:08:21.898Z,14.80
2019-01-23T08:11:25.339Z,14.67
2019-01-23T08:14:28.914Z,13.70
2019-01-23T08:17:32.895Z,14.33
2019-01-23T08:20:36.740Z,14.20
2019-01-23T08:23:40.214Z,14.10
2019-01-23T08:26:43.725Z,14.45
2019-01-23T08:29:47.189Z,13.73
2019-01-23T08:32:50.819Z,13.93
2019-01-23T08:35:54.475Z,14.70
2019-01-23T08:38:57.886Z,13.93
2019-01-23T08:42:01.443Z,14.23
2019-01-23T08:45:05.923Z,14.47
2019-01-23T08:48:09.358Z,14.50
2019-01-23T08:51:12.857Z,13.87
2019-01-23T08:54:16.414Z,14.13
2019-01-23T08:57:19.878Z,14.50
2019-01-23T09:00:23.367Z,13.75
2019-01-23T09:03:26.877Z,13.43
2019-01-23T09:06:30.329Z,13.87
2019-01-23T09:09:34.001Z,13.53
2019-01-23T09:12:37.447Z,14.03
2019-01-23T09:15:40.981Z,14.17
2019-01-23T09:18:44.452Z,13.67
2019-01-23T09:21:47.914Z,13.60
2019-01-23T09:24:51.440Z,14.77
2019-01-23T09:27:54.894Z,15.13
2019-01-23T09:31:38.684Z,14.23
2019-01-23T09:34:57.114Z,14.10
2019-01-23T09:38:24.197Z,13.60
2019-01-23T09:41:54.644Z,13.80
2019-01-23T09:45:29.706Z,14.67
2019-01-23T09:48:54.980Z,14.33
2019-01-23T09:52:55.631Z,14.23
2019-01-23T09:55:59.319Z,14.07
2019-01-23T09:59:02.875Z,14.20
2019-01-23T10:02:06.503Z,13.90
2019-01-23T10:05:09.969Z,13.32
2019-01-23T10:08:13.408Z,13.83
2019-01-23T10:11:16.960Z,14.37
2019-01-23T10:14:21.477Z,13.97
2019-01-23T10:17:25.017Z,13.73
2019-01-23T10:20:28.548Z,13.27
2019-01-23T10:23:32.138Z,13.27
2019-01-23T10:26:35.689Z,13.08
2019-01-23T10:29:40.218Z,13.77
2019-01-23T10:32:45.813Z,13.67
2019-01-23T10:35:49.471Z,13.35
2019-01-23T10:38:52.989Z,13.48
2019-01-23T10:41:56.490Z,13.83
2019-01-23T10:45:00.996Z,14.37
2019-01-23T10:48:04.499Z,13.10
2019-01-23T10:51:07.966Z,12.93
2019-01-23T10:54:11.420Z,13.53
2019-01-23T10:57:14.909Z,12.98
2019-01-23T11:00:18.794Z,13.20
2019-01-23T11:03:22.439Z,13.00
2019-01-23T11:06:26.958Z,12.80
2019-01-23T11:09:32.551Z,11.90
2019-01-23T11:12:36.340Z,12.80
2019-01-23T11:15:39.878Z,13.22
2019-01-23T11:18:43.393Z,12.63
2019-01-23T11:21:47.006Z,12.80
2019-01-23T11:24:50.701Z,12.80
2019-01-23T11:27:54.328Z,12.75
2019-01-23T11:30:58.875Z,13.45
2019-01-23T11:34:03.356Z,13.40
2019-01-23T11:37:07.897Z,12.45
2019-01-23T11:40:16.290Z,12.88
2019-01-23T11:43:19.903Z,12.75
2019-01-23T11:46:23.511Z,13.20
2019-01-23T11:49:27.094Z,12.25
2019-01-23T11:52:30.715Z,12.18
2019-01-23T11:55:34.404Z,11.78
2019-01-23T11:58:37.935Z,12.23
2019-01-23T12:01:41.447Z,12.63
2019-01-23T12:04:44.944Z,11.63
2019-01-23T12:07:48.541Z,11.95
2019-01-23T12:10:52.116Z,12.10
2019-01-23T12:13:55.789Z,11.73
2019-01-23T12:16:59.332Z,11.93
2019-01-23T12:20:02.837Z,11.78
2019-01-23T12:23:06.328Z,12.13
2019-01-23T12:26:09.831Z,11.65
2019-01-23T12:29:13.340Z,11.83
2019-01-23T12:32:18.919Z,11.28
2019-01-23T12:35:22.378Z,10.88
2019-01-23T12:38:25.909Z,11.43
2019-01-23T12:41:30.407Z,11.48
2019-01-23T12:44:34.005Z,11.18
2019-01-23T12:47:38.641Z,11.50
2019-01-23T12:50:42.130Z,10.63
2019-01-23T12:53:45.644Z,11.80
2019-01-23T12:56:49.166Z,10.10
2019-01-23T12:59:52.652Z,10.68
2019-01-23T13:02:56.166Z,11.25
2019-01-23T13:05:59.655Z,10.53
2019-01-23T13:09:04.662Z,10.20
2019-01-23T13:12:09.323Z,10.28
2019-01-23T13:15:14.552Z,9.53
2019-01-23T13:18:20.233Z,9.90
2019-01-23T13:21:23.783Z,9.90
2019-01-23T13:24:27.400Z,11.25
2019-01-23T13:27:30.943Z,10.35
2019-01-23T13:30:34.399Z,9.25
2019-01-23T13:33:37.920Z,10.03
2019-01-23T13:36:41.402Z,9.53
2019-01-23T13:39:44.927Z,10.05
2019-01-23T13:42:48.431Z,10.35
2019-01-23T13:45:51.903Z,10.40
2019-01-23T13:48:55.433Z,10.70
2019-01-23T13:51:58.922Z,9.88
2019-01-23T13:55:02.516Z,10.03
2019-01-23T13:58:06.162Z,9.80
2019-01-23T14:01:09.636Z,10.65
2019-01-23T14:04:14.167Z,10.60
2019-01-23T14:07:17.655Z,10.58
2019-01-23T14:10:21.141Z,9.58
2019-01-23T14:13:24.688Z,10.35
2019-01-23T14:16:28.160Z,10.63
2019-01-23T14:19:32.684Z,11.48
2019-01-23T14:22:36.248Z,11.57
2019-01-23T14:25:39.888Z,11.43
2019-01-23T14:28:43.507Z,11.38
2019-01-23T14:31:47.111Z,11.53
2019-01-23T14:34:50.601Z,11.05
2019-01-23T14:38:00.617Z,11.73
2019-01-23T14:41:00.455Z,11.03
2019-01-23T14:44:04.996Z,11.97
2019-01-23T14:47:08.496Z,12.28
2019-01-23T14:50:13.516Z,12.40
2019-01-23T14:53:17.206Z,12.25
2019-01-23T14:56:20.838Z,12.70
2019-01-23T14:59:25.363Z,11.97
2019-01-23T15:02:28.912Z,13.03
2019-01-23T15:05:32.368Z,13.62
2019-01-23T15:08:35.874Z,13.78
2019-01-23T15:11:39.365Z,14.10
2019-01-23T15:14:42.878Z,13.30
2019-01-23T15:17:46.447Z,14.58
2019-01-23T15:20:50.067Z,14.75
2019-01-23T15:23:54.756Z,14.87
2019-01-23T15:26:59.325Z,15.10
2019-01-23T15:30:02.895Z,15.15
2019-01-23T15:33:06.558Z,15.28
2019-01-23T15:36:10.035Z,15.93
2019-01-23T15:39:13.548Z,15.78
2019-01-23T15:42:17.019Z,16.05
2019-01-23T15:45:20.535Z,16.27
2019-01-23T15:48:25.072Z,16.62
2019-01-23T15:51:28.572Z,15.83
2019-01-23T15:54:32.069Z,16.90
2019-01-23T15:57:36.061Z,16.57
2019-01-23T16:00:39.695Z,16.82
2019-01-23T16:03:44.241Z,17.90
2019-01-23T16:06:47.806Z,18.05
2019-01-23T16:09:51.464Z,18.35
2019-01-23T16:12:54.973Z,17.87
2019-01-23T16:15:58.403Z,17.90
2019-01-23T16:19:01.937Z,17.62
2019-01-23T16:22:05.450Z,16.82
2019-01-23T16:25:11.882Z,18.60
2019-01-23T16:28:15.500Z,17.90
2019-01-23T16:31:20.047Z,18.20
2019-01-23T16:34:23.554Z,18.50
2019-01-23T16:37:27.030Z,18.60
2019-01-23T16:40:30.552Z,17.82
2019-01-23T16:43:34.027Z,19.50
2019-01-23T16:46:37.524Z,19.60
2019-01-23T16:49:41.039Z,19.45
2019-01-23T16:52:45.742Z,20.00
2019-01-23T16:55:50.273Z,19.85
2019-01-23T16:58:53.827Z,19.17
2019-01-23T17:01:57.275Z,20.10
2019-01-23T17:05:00.799Z,20.43
2019-01-23T17:08:06.625Z,20.55
2019-01-23T17:11:11.136Z,19.50
2019-01-23T17:14:14.787Z,19.80
2019-01-23T17:17:18.364Z,20.68
2019-01-23T17:20:24.786Z,21.00
2019-01-23T17:23:28.350Z,20.48
2019-01-23T17:26:31.871Z,20.35
2019-01-23T17:29:35.371Z,20.90
2019-01-23T17:32:45.668Z,22.40
2019-01-23T17:35:45.218Z,21.50
2019-01-23T17:38:48.724Z,20.77
2019-01-23T17:41:52.211Z,21.00
2019-01-23T17:44:55.727Z,21.30
2019-01-23T17:48:00.388Z,20.60
2019-01-23T17:51:04.065Z,20.80
2019-01-23T17:54:07.655Z,21.42
2019-01-23T17:57:11.154Z,21.33
2019-01-23T18:00:18.759Z,21.50
2019-01-23T18:03:22.285Z,21.52
2019-01-23T18:06:25.753Z,20.75
2019-01-23T18:09:29.247Z,20.88
2019-01-23T18:12:32.776Z,21.30
2019-01-23T18:15:37.378Z,20.70
2019-01-23T18:18:41.012Z,21.80
2019-01-23T18:21:44.486Z,20.70
2019-01-23T18:24:47.984Z,21.15
2019-01-23T18:27:54.514Z,21.35
2019-01-23T18:31:12.493Z,21.15
2019-01-23T18:34:53.592Z,19.90
2019-01-23T18:38:57.822Z,20.68
2019-01-23T18:42:29.406Z,20.92
2019-01-23T18:45:47.190Z,19.77
2019-01-23T18:49:21.230Z,20.60
2019-01-23T18:52:23.888Z,20.52
2019-01-23T18:55:28.005Z,21.40
2019-01-23T18:58:31.609Z,20.05
2019-01-23T19:01:37.195Z,20.32
2019-01-23T19:04:40.754Z,20.12
2019-01-23T19:07:44.362Z,20.15
2019-01-23T19:10:47.959Z,21.27
2019-01-23T19:13:51.587Z,20.02
2019-01-23T19:16:55.192Z,19.67
2019-01-23T19:19:58.656Z,21.00
2019-01-23T19:23:02.197Z,20.43
2019-01-23T19:26:06.819Z,18.77
2019-01-23T19:29:10.308Z,18.98
2019-01-23T19:35:17.345Z,19.80
2019-01-23T19:38:20.809Z,19.98
2019-01-23T19:41:24.317Z,20.43
2019-01-23T19:44:27.815Z,20.12
2019-01-23T19:47:31.310Z,18.07
2019-01-23T19:50:34.986Z,19.40
2019-01-23T19:53:38.618Z,18.35
2019-01-23T19:56:42.095Z,18.57
2019-01-23T19:59:45.744Z,18.65
2019-01-23T20:02:49.248Z,19.50
2019-01-23T20:05:52.748Z,18.92
2019-01-23T20:08:56.234Z,18.87
2019-01-23T20:11:59.843Z,18.90
2019-01-23T20:15:03.567Z,18.75
2019-01-23T20:18:10.927Z,18.50
2019-01-23T20:21:14.545Z,18.73
2019-01-23T20:24:18.062Z,16.97
2019-01-23T20:27:22.580Z,18.55
2019-01-23T20:30:31.814Z,18.65
2019-01-23T20:33:35.300Z,19.40
2019-01-23T20:36:38.809Z,18.32
2019-01-23T20:39:42.323Z,18.12
2019-01-23T20:42:46.160Z,17.35
2019-01-23T20:45:49.824Z,17.02
2019-01-23T20:48:53.413Z,17.37
2019-01-23T20:51:56.931Z,18.45
2019-01-23T20:55:00.420Z,16.67
2019-01-23T20:58:03.977Z,18.50
2019-01-23T21:01:07.659Z,18.23
2019-01-23T21:04:11.227Z,17.25
2019-01-23T21:07:14.948Z,17.98
2019-01-23T21:10:19.262Z,17.32
2019-01-23T21:13:22.747Z,16.87
2019-01-23T21:16:26.248Z,17.35
2019-01-23T21:19:29.690Z,17.12
2019-01-23T21:22:34.141Z,17.92
2019-01-23T21:25:37.793Z,17.20
2019-01-23T21:28:41.386Z,18.10
2019-01-23T21:31:44.911Z,17.50
2019-01-23T21:34:48.389Z,17.57
2019-01-23T21:37:51.885Z,17.90
2019-01-23T21:40:56.415Z,17.48
2019-01-23T21:43:59.920Z,17.67
2019-01-23T21:47:03.441Z,17.20
2019-01-23T21:50:10.897Z,17.70
2019-01-23T21:53:14.399Z,17.20
2019-01-23T21:56:17.918Z,17.32
2019-01-23T21:59:21.404Z,17.35
2019-01-23T22:02:25.027Z,17.05
2019-01-23T22:05:28.515Z,17.00
2019-01-23T22:08:32.036Z,18.25
2019-01-23T22:11:35.530Z,17.92
2019-01-23T22:14:39.011Z,17.12
2019-01-23T22:17:42.535Z,17.67
2019-01-23T22:20:47.044Z,17.30
2019-01-23T22:23:51.581Z,17.92
2019-01-23T22:26:55.067Z,17.20
2019-01-23T22:29:59.593Z,17.70
2019-01-23T22:33:03.111Z,16.17
2019-01-23T22:36:06.561Z,17.20
2019-01-23T22:39:11.198Z,16.15
2019-01-23T22:42:15.642Z,16.87
2019-01-23T22:45:19.858Z,17.75
2019-01-23T22:48:23.365Z,17.37
2019-01-23T22:51:26.873Z,17.32
2019-01-23T22:54:30.383Z,17.10
2019-01-23T22:57:33.975Z,16.85
2019-01-23T23:00:57.778Z,16.62
2019-01-23T23:04:03.519Z,16.77
2019-01-23T23:07:07.208Z,16.67
2019-01-23T23:10:10.727Z,17.73
2019-01-23T23:13:14.202Z,16.90
2019-01-23T23:16:17.802Z,16.82
2019-01-23T23:19:21.312Z,17.00
2019-01-23T23:22:24.833Z,16.75
2019-01-23T23:25:28.412Z,16.60
2019-01-23T23:28:31.939Z,16.95
2019-01-23T23:31:35.445Z,17.50
2019-01-23T23:34:38.934Z,16.80
2019-01-23T23:37:42.423Z,15.53
2019-01-23T23:40:46.925Z,16.55
2019-01-23T23:43:50.434Z,16.45
2019-01-23T23:46:53.954Z,16.55
2019-01-23T23:49:57.442Z,16.55
2019-01-23T23:53:00.944Z,17.07
2019-01-23T23:56:04.744Z,16.12
2019-01-23T23:59:08.260Z,16.55
